SCJO

Cañal Bajo Carlos - Hott Siebert Airport

Osorno, Chile
TAF SCJO 151033Z 1512/1524 VRB02KT 5000 HZ NSC TN03/1512Z TX13/1518Z BECMG 1513/1515 35005KT CAVOK
Issued Valid From Valid To
Aug-15 @ 10:33 UTC
(2 hours ago)
Aug-15 @ 12:00 UTC
(41 minutes ago)
Aug-16 @ 00:00 UTC
(in 11 hours)
Aug-15 @ 12:00 to Aug-15 @ 13:00
TAF SCJO 151033Z 1512/1524 VRB02KT 5000 HZ NSC TN03/1512Z TX13/1518Z
Wind Visibility Clouds Conditions
Variable at 2 knots 5,005 meters
  • No significant clouds
  • Haze
Becoming Aug-15 @ 13:00 to Aug-16 @ 00:00
BECMG 1513/1515 35005KT CAVOK
Wind Visibility Clouds Conditions
350° at 5 knots 10,000+ meters
  • No significant clouds
TAF SCJO 151033Z 1512/1524 VRB02KT 5000 HZ NSC TN03/1512Z TX13/1518Z BECMG 1513/1515 35005KT CAVOK
Issued Aug-15 @ 10:33 UTC
(2 hours ago)
Valid From Aug-15 @ 12:00 UTC
(41 minutes ago)
Valid To Aug-16 @ 00:00 UTC
(in 11 hours)
Aug-15 @ 12:00 - Aug-15 @ 13:00
Wind Visibility
Variable at 2 knots 5,005 meters
Clouds
  • No significant clouds
Conditions
  • Haze
Becoming Aug-15 @ 13:00 - Aug-16 @ 00:00
Wind Visibility
350° at 5 knots 10,000+ meters
Clouds
  • No significant clouds
Conditions